Carmel Highlands, California
Current Conditions -  °F | °C
As of 2:54 PM on Thursday 23 Oct 2014 (Local Time) from KMRY Reporting Station
Clear Clear  
Wind Chill: 69°   Ceiling: Unl
Heat Index: 69°   Visibility: 10mi
Dew Point: 54°   Wind: 7mph
Humidity: 58%   Direction: 290°WNW
Pressure: 30.01"   Gusts: NA
Location:  36.5057°N, 121.854°W
Report Text: KMRY 232154Z 29006KT 10SM CLR 21/12 A3001 RMK AO2 SLP171 T02060122
Loading
Personal Weather Stations






























Interactive Weather Map
Tropical Storm Tracking
New forecast layout! Learn more

10-Day Weather Forecast

Advertisements
Track Severe Weather on mobile